createdAt,value
2022-11-25T00:13:21.988Z,2.42
2022-11-25T00:28:28.651Z,1.98
2022-11-25T00:43:51.455Z,2.35
2022-11-25T00:58:56.330Z,8.45
2022-11-25T01:14:02.045Z,4.53
2022-11-25T01:29:10.255Z,2.65
2022-11-25T01:44:17.874Z,2.00
2022-11-25T01:59:23.199Z,2.67
2022-11-25T02:14:28.354Z,2.85
2022-11-25T02:29:34.582Z,1.17
2022-11-25T02:44:41.187Z,2.17
2022-11-25T02:59:46.153Z,3.35
2022-11-25T03:14:51.535Z,3.02
2022-11-25T03:29:56.898Z,4.53
2022-11-25T03:45:02.440Z,3.62
2022-11-25T04:00:09.369Z,0.72
2022-11-25T04:15:25.036Z,5.87
2022-11-25T04:30:31.752Z,1.50
2022-11-25T04:45:59.018Z,3.83
2022-11-25T05:00:44.843Z,0.75
2022-11-25T05:15:50.991Z,1.25
2022-11-25T05:30:57.058Z,1.35
2022-11-25T05:46:10.878Z,0.40
2022-11-25T06:01:18.335Z,2.42
2022-11-25T06:16:24.371Z,2.55
2022-11-25T06:31:31.079Z,0.53
2022-11-25T06:46:40.772Z,4.40
2022-11-25T07:01:45.827Z,7.03
2022-11-25T07:16:51.094Z,6.30
2022-11-25T07:31:55.997Z,0.90
2022-11-25T07:47:01.122Z,3.02
2022-11-25T08:02:06.068Z,2.52
2022-11-25T08:17:11.067Z,1.05
2022-11-25T08:32:15.989Z,0.35
2022-11-25T08:47:23.103Z,5.92
2022-11-25T09:02:28.128Z,1.45
2022-11-25T09:17:34.793Z,1.47
2022-11-25T09:32:39.712Z,0.78
2022-11-25T09:47:54.362Z,0.20
2022-11-25T10:03:18.660Z,1.07
2022-11-25T10:18:26.668Z,3.85
2022-11-25T10:34:05.384Z,1.52
2022-11-25T10:49:31.046Z,0.53
2022-11-25T11:04:37.670Z,1.32
2022-11-25T11:19:42.794Z,4.08
2022-11-25T11:34:53.596Z,3.27
2022-11-25T11:50:18.123Z,2.58
2022-11-25T12:05:26.557Z,9.58
2022-11-25T12:20:40.329Z,3.10
2022-11-25T12:35:57.273Z,1.50
2022-11-25T12:51:05.209Z,1.60
2022-11-25T13:06:17.929Z,2.47
2022-11-25T13:21:24.969Z,6.35
2022-11-25T13:36:51.079Z,2.50
2022-11-25T13:52:05.243Z,4.28
2022-11-25T14:07:40.210Z,1.47
2022-11-25T14:23:08.512Z,2.70
2022-11-25T14:38:19.744Z,1.82
2022-11-25T14:53:25.693Z,1.50
2022-11-25T15:08:34.313Z,3.22
2022-11-25T15:23:41.200Z,10.38
2022-11-25T15:38:47.721Z,6.37
2022-11-25T15:54:04.290Z,8.65
2022-11-25T16:09:21.219Z,5.60
2022-11-25T16:25:11.399Z,2.92
2022-11-25T16:40:20.871Z,4.33
2022-11-25T16:55:26.110Z,4.35
2022-11-25T17:10:31.106Z,20.25
2022-11-25T17:25:37.308Z,21.17
2022-11-25T17:40:43.984Z,17.57
2022-11-25T17:55:52.378Z,12.90
2022-11-25T18:11:02.128Z,11.03
2022-11-25T18:26:12.017Z,8.90
2022-11-25T18:41:19.988Z,3.55
2022-11-25T18:56:25.063Z,4.15
2022-11-25T19:11:32.768Z,3.98
2022-11-25T19:26:41.881Z,8.40
2022-11-25T19:41:46.946Z,2.60
2022-11-25T19:56:52.227Z,6.05
2022-11-25T20:11:58.829Z,8.65
2022-11-25T20:27:04.102Z,4.12
2022-11-25T20:42:12.660Z,1.40
2022-11-25T20:57:17.580Z,7.12
2022-11-25T21:12:22.632Z,8.48
2022-11-25T21:27:27.823Z,7.15
2022-11-25T21:42:33.396Z,5.80
2022-11-25T21:57:38.645Z,9.80
2022-11-25T22:12:46.433Z,10.25
2022-11-25T22:27:53.538Z,8.30
2022-11-25T22:43:00.130Z,9.65
2022-11-25T22:58:05.377Z,6.35
2022-11-25T23:13:10.986Z,6.85
2022-11-25T23:28:16.370Z,1.22
2022-11-25T23:43:21.449Z,2.70
2022-11-25T23:58:26.643Z,4.17
